createdAt,value
2018-03-04T00:00:34.494Z,87.71
2018-03-04T00:03:02.042Z,87.47
2018-03-04T00:05:29.714Z,87.42
2018-03-04T00:07:57.255Z,87.31
2018-03-04T00:10:24.804Z,87.24
2018-03-04T00:12:52.523Z,87.04
2018-03-04T00:15:20.057Z,87.45
2018-03-04T00:17:47.607Z,86.99
2018-03-04T00:20:15.196Z,87.29
2018-03-04T00:22:42.737Z,87.42
2018-03-04T00:25:10.276Z,87.69
2018-03-04T00:27:37.953Z,87.52
2018-03-04T00:30:05.502Z,86.95
2018-03-04T00:32:33.040Z,87.14
2018-03-04T00:35:00.596Z,86.79
2018-03-04T00:37:28.130Z,87.00
2018-03-04T00:39:55.661Z,87.01
2018-03-04T00:42:23.227Z,87.22
2018-03-04T00:44:50.767Z,86.67
2018-03-04T00:47:18.305Z,86.90
2018-03-04T00:49:45.870Z,87.16
2018-03-04T00:52:13.407Z,87.73
2018-03-04T00:54:40.951Z,87.58
2018-03-04T00:57:08.677Z,87.52
2018-03-04T00:59:36.209Z,87.67
2018-03-04T01:02:03.744Z,87.85
2018-03-04T01:04:31.326Z,87.78
2018-03-04T01:06:58.878Z,88.09
2018-03-04T01:09:26.415Z,88.58
2018-03-04T01:11:54.326Z,88.16
2018-03-04T01:14:21.871Z,88.02
2018-03-04T01:16:49.408Z,88.08
2018-03-04T01:19:17.086Z,88.44
2018-03-04T01:21:44.624Z,88.37
2018-03-04T01:24:12.156Z,88.38
2018-03-04T01:26:39.719Z,88.91
2018-03-04T01:29:07.931Z,88.65
2018-03-04T01:31:35.475Z,89.01
2018-03-04T01:34:03.224Z,88.79
2018-03-04T01:36:30.757Z,88.82
2018-03-04T01:38:58.285Z,88.85
2018-03-04T01:41:25.857Z,89.23
2018-03-04T01:43:53.403Z,89.29
2018-03-04T01:46:20.945Z,89.27
2018-03-04T01:48:48.670Z,89.45
2018-03-04T01:51:16.247Z,89.45
2018-03-04T01:53:43.797Z,89.62
2018-03-04T01:56:11.530Z,89.79
2018-03-04T01:58:39.088Z,89.75
2018-03-04T02:01:06.636Z,90.01
2018-03-04T02:03:34.231Z,89.94
2018-03-04T02:06:01.770Z,90.02
2018-03-04T02:08:29.319Z,90.15
2018-03-04T02:10:57.054Z,90.12
2018-03-04T02:13:24.600Z,90.08
2018-03-04T02:15:52.145Z,90.16
2018-03-04T02:18:19.898Z,90.06
2018-03-04T02:20:47.442Z,90.25
2018-03-04T02:23:14.981Z,90.38
2018-03-04T02:25:42.550Z,90.43
2018-03-04T02:28:10.100Z,90.33
2018-03-04T02:30:37.646Z,90.34
2018-03-04T02:33:05.338Z,90.01
2018-03-04T02:35:32.876Z,90.05
2018-03-04T02:38:00.414Z,90.21
2018-03-04T02:40:28.050Z,90.08
2018-03-04T02:42:55.602Z,90.14
2018-03-04T02:45:23.158Z,90.25
2018-03-04T02:47:50.748Z,90.58
2018-03-04T02:50:18.298Z,90.20
2018-03-04T02:52:45.858Z,90.02
2018-03-04T02:55:13.548Z,90.07
2018-03-04T02:57:41.094Z,90.00
2018-03-04T03:00:08.654Z,90.31
2018-03-04T03:02:36.553Z,90.16
2018-03-04T03:05:04.073Z,90.11
2018-03-04T03:07:31.623Z,90.08
2018-03-04T03:09:59.201Z,90.34
2018-03-04T03:12:26.747Z,90.17
2018-03-04T03:14:54.286Z,89.78
2018-03-04T03:17:21.879Z,89.77
2018-03-04T03:19:49.432Z,89.79
2018-03-04T03:22:17.020Z,89.95
2018-03-04T03:24:44.731Z,90.07
2018-03-04T03:27:12.272Z,90.18
2018-03-04T03:29:39.845Z,90.18
2018-03-04T03:32:07.530Z,90.32
2018-03-04T03:34:35.078Z,90.17
2018-03-04T03:37:02.629Z,90.51
2018-03-04T03:39:30.193Z,90.46
2018-03-04T03:41:57.732Z,90.65
2018-03-04T03:44:25.274Z,90.80
2018-03-04T03:46:52.889Z,90.69
2018-03-04T03:49:20.425Z,90.56
2018-03-04T03:51:47.978Z,90.56
2018-03-04T03:54:15.645Z,90.20
2018-03-04T03:56:43.185Z,90.23
2018-03-04T03:59:10.735Z,90.37
2018-03-04T04:01:38.449Z,89.71
2018-03-04T04:04:05.997Z,89.89
2018-03-04T04:06:33.563Z,89.92
2018-03-04T04:09:01.106Z,90.07
2018-03-04T04:11:28.661Z,90.25
2018-03-04T04:13:56.226Z,90.30
2018-03-04T04:16:23.779Z,90.24
2018-03-04T04:18:51.330Z,90.13
2018-03-04T04:21:19.101Z,90.20
2018-03-04T04:23:46.654Z,90.44
2018-03-04T04:26:14.198Z,90.30
2018-03-04T04:28:41.879Z,90.54
2018-03-04T04:31:09.440Z,90.57
2018-03-04T04:33:36.984Z,90.53
2018-03-04T04:36:04.578Z,90.35
2018-03-04T04:38:32.131Z,90.51
2018-03-04T04:40:59.670Z,90.26
2018-03-04T04:43:27.342Z,90.39
2018-03-04T04:45:54.889Z,90.42
2018-03-04T04:48:22.429Z,90.38
2018-03-04T04:50:50.118Z,90.42
2018-03-04T04:53:17.689Z,90.36
2018-03-04T04:55:45.237Z,90.36
2018-03-04T04:58:12.809Z,90.41
2018-03-04T05:00:40.363Z,90.48
2018-03-04T05:03:07.898Z,90.59
2018-03-04T05:05:35.626Z,90.58
2018-03-04T05:08:03.166Z,90.67
2018-03-04T05:10:30.711Z,90.73
2018-03-04T05:12:58.386Z,90.76
2018-03-04T05:15:25.932Z,90.71
2018-03-04T05:17:53.501Z,90.79
2018-03-04T05:20:21.060Z,90.70
2018-03-04T05:22:48.594Z,90.87
2018-03-04T05:25:16.139Z,91.07
2018-03-04T05:27:43.828Z,90.94
2018-03-04T05:30:11.370Z,90.85
2018-03-04T05:32:38.912Z,90.77
2018-03-04T05:35:06.646Z,90.58
2018-03-04T05:37:34.191Z,90.52
2018-03-04T05:40:01.741Z,90.54
2018-03-04T05:42:29.475Z,90.57
2018-03-04T05:44:57.019Z,90.50
2018-03-04T05:47:24.565Z,90.34
2018-03-04T05:49:52.129Z,90.27
2018-03-04T05:52:19.671Z,90.29
2018-03-04T05:54:47.207Z,90.17
2018-03-04T05:57:15.077Z,90.25
2018-03-04T05:59:42.637Z,90.16
2018-03-04T06:02:10.191Z,90.11
2018-03-04T06:04:38.074Z,90.12
2018-03-04T06:07:06.505Z,90.19
2018-03-04T06:09:34.048Z,90.18
2018-03-04T06:12:01.700Z,89.88
2018-03-04T06:14:29.257Z,89.79
2018-03-04T06:16:56.824Z,89.59
2018-03-04T06:19:24.418Z,89.49
2018-03-04T06:21:51.983Z,89.48
2018-03-04T06:24:19.519Z,89.36
2018-03-04T06:26:47.203Z,89.18
2018-03-04T06:29:14.742Z,89.02
2018-03-04T06:31:42.284Z,88.91
2018-03-04T06:34:10.026Z,88.87
2018-03-04T06:36:37.571Z,88.66
2018-03-04T06:39:05.167Z,88.54
2018-03-04T06:41:32.894Z,88.41
2018-03-04T06:44:00.463Z,88.38
2018-03-04T06:46:28.011Z,88.46
2018-03-04T06:48:55.780Z,88.31
2018-03-04T06:51:23.328Z,88.39
2018-03-04T06:53:50.870Z,88.28
2018-03-04T06:56:18.454Z,88.06
2018-03-04T06:58:46.001Z,87.78
2018-03-04T07:01:13.549Z,87.31
2018-03-04T07:03:41.283Z,86.93
2018-03-04T07:06:08.823Z,86.94
2018-03-04T07:08:36.370Z,86.87
2018-03-04T07:11:03.949Z,86.53
2018-03-04T07:13:31.494Z,86.37
2018-03-04T07:15:59.040Z,86.66
2018-03-04T07:18:26.762Z,87.01
2018-03-04T07:20:54.305Z,86.97
2018-03-04T07:23:21.849Z,87.17
2018-03-04T07:25:49.423Z,87.60
2018-03-04T07:28:16.970Z,87.72
2018-03-04T07:30:44.507Z,87.79
2018-03-04T07:33:12.239Z,87.31
2018-03-04T07:35:39.775Z,87.03
2018-03-04T07:38:07.332Z,86.57
2018-03-04T07:40:34.933Z,86.20
2018-03-04T07:43:02.495Z,86.12
2018-03-04T07:45:30.044Z,84.78
2018-03-04T07:47:57.740Z,83.38
2018-03-04T07:50:25.310Z,81.33
2018-03-04T07:52:52.842Z,79.98
2018-03-04T07:55:20.449Z,78.41
2018-03-04T07:57:47.986Z,77.54
2018-03-04T08:00:15.534Z,76.32
2018-03-04T08:02:43.105Z,76.26
2018-03-04T08:05:10.656Z,76.21
2018-03-04T08:07:38.219Z,76.00
2018-03-04T08:10:05.766Z,75.95
2018-03-04T08:12:33.351Z,76.06
2018-03-04T08:15:00.917Z,74.75
2018-03-04T08:17:28.466Z,75.03
2018-03-04T08:19:56.012Z,75.44
2018-03-04T08:22:23.606Z,75.62
2018-03-04T08:25:02.678Z,77.11
2018-03-04T08:27:41.989Z,76.47
2018-03-04T08:30:09.528Z,75.25
2018-03-04T08:32:37.079Z,73.92
2018-03-04T08:35:04.914Z,72.90
2018-03-04T08:37:32.459Z,72.13
2018-03-04T08:40:00.027Z,70.64
2018-03-04T08:42:27.682Z,72.08
2018-03-04T08:44:55.225Z,71.96
2018-03-04T08:47:22.770Z,72.66
2018-03-04T08:49:50.362Z,72.87
2018-03-04T08:52:17.912Z,74.49
2018-03-04T08:54:45.446Z,75.41
2018-03-04T08:57:13.037Z,75.45
2018-03-04T08:59:40.595Z,74.83
2018-03-04T09:02:08.139Z,75.64
2018-03-04T09:04:36.062Z,74.27
2018-03-04T09:07:03.623Z,74.05
2018-03-04T09:09:31.217Z,73.04
2018-03-04T09:11:58.773Z,71.82
2018-03-04T09:14:26.312Z,70.36
2018-03-04T09:16:53.873Z,68.20
2018-03-04T09:19:21.461Z,67.86
2018-03-04T09:21:49.014Z,67.30
2018-03-04T09:24:16.562Z,68.71
2018-03-04T09:26:44.289Z,67.69
2018-03-04T09:29:11.821Z,69.22
2018-03-04T09:31:39.358Z,67.77
2018-03-04T09:34:06.950Z,67.97
2018-03-04T09:36:34.517Z,67.77
2018-03-04T09:39:02.066Z,68.48
2018-03-04T09:41:29.794Z,68.78
2018-03-04T09:43:57.364Z,68.32
2018-03-04T09:46:24.914Z,67.37
2018-03-04T09:48:52.486Z,69.35
2018-03-04T09:51:20.070Z,67.47
2018-03-04T09:53:47.618Z,67.37
2018-03-04T09:56:16.117Z,69.63
2018-03-04T09:58:43.687Z,70.61
2018-03-04T10:01:11.228Z,67.25
2018-03-04T10:03:38.824Z,66.97
2018-03-04T10:06:06.384Z,66.25
2018-03-04T10:08:33.948Z,66.97
2018-03-04T10:11:01.540Z,65.84
2018-03-04T10:13:29.127Z,66.98
2018-03-04T10:15:56.671Z,65.25
2018-03-04T10:18:24.410Z,65.83
2018-03-04T10:20:51.957Z,65.36
2018-03-04T10:23:19.549Z,65.17
2018-03-04T10:25:47.151Z,67.48
2018-03-04T10:28:14.716Z,64.30
2018-03-04T10:30:42.259Z,65.85
2018-03-04T10:33:10.006Z,66.39
2018-03-04T10:35:37.565Z,65.57
2018-03-04T10:38:05.102Z,66.05
2018-03-04T10:40:32.839Z,63.93
2018-03-04T10:43:00.380Z,63.60
2018-03-04T10:45:27.918Z,63.91
2018-03-04T10:47:55.499Z,65.96
2018-03-04T10:50:23.054Z,65.65
2018-03-04T10:52:50.620Z,65.88
2018-03-04T10:55:18.356Z,65.64
2018-03-04T10:57:45.885Z,66.81
2018-03-04T11:00:13.457Z,68.58
2018-03-04T11:02:41.838Z,66.21
2018-03-04T11:05:09.411Z,66.71
2018-03-04T11:07:37.011Z,66.47
2018-03-04T11:10:04.573Z,68.21
2018-03-04T11:12:32.110Z,68.55
2018-03-04T11:14:59.702Z,69.05
2018-03-04T11:17:27.254Z,68.36
2018-03-04T11:19:54.801Z,69.64
2018-03-04T11:22:22.377Z,69.01
2018-03-04T11:24:49.921Z,68.15
2018-03-04T11:27:17.459Z,68.63
2018-03-04T11:29:45.046Z,69.08
2018-03-04T11:32:12.594Z,70.31
2018-03-04T11:34:40.130Z,69.88
2018-03-04T11:37:07.710Z,72.19
2018-03-04T11:39:35.262Z,73.30
2018-03-04T11:42:02.812Z,72.73
2018-03-04T11:44:30.538Z,72.66
2018-03-04T11:46:58.073Z,71.50
2018-03-04T11:49:25.618Z,70.75
2018-03-04T11:51:53.202Z,72.53
2018-03-04T11:54:20.742Z,70.55
2018-03-04T11:56:48.287Z,71.17
2018-03-04T11:59:15.860Z,71.81
2018-03-04T12:01:43.424Z,70.88
2018-03-04T12:04:10.986Z,71.22
2018-03-04T12:06:38.725Z,70.02
2018-03-04T12:09:06.292Z,69.82
2018-03-04T12:11:33.854Z,71.46
2018-03-04T12:14:01.783Z,71.26
2018-03-04T12:16:29.340Z,71.63
2018-03-04T12:18:56.916Z,70.78
2018-03-04T12:21:24.503Z,70.12
2018-03-04T12:23:52.044Z,71.43
2018-03-04T12:26:19.594Z,71.92
2018-03-04T12:28:47.177Z,70.70
2018-03-04T12:31:14.732Z,70.62
2018-03-04T12:33:42.289Z,71.04
2018-03-04T12:36:09.859Z,69.93
2018-03-04T12:38:37.409Z,70.35
2018-03-04T12:41:04.946Z,69.08
2018-03-04T12:43:32.824Z,69.88
2018-03-04T12:46:00.363Z,67.91
2018-03-04T12:48:27.902Z,67.91
2018-03-04T12:50:55.479Z,67.67
2018-03-04T12:53:23.040Z,67.38
2018-03-04T12:55:50.574Z,67.62
2018-03-04T12:58:18.150Z,67.26
2018-03-04T13:00:46.439Z,68.23
2018-03-04T13:03:13.973Z,68.31
2018-03-04T13:05:41.569Z,67.23
2018-03-04T13:08:09.156Z,68.43
2018-03-04T13:10:36.712Z,67.92
2018-03-04T13:13:04.446Z,67.98
2018-03-04T13:15:31.998Z,69.14
2018-03-04T13:17:59.556Z,69.25
2018-03-04T13:20:27.172Z,70.26
2018-03-04T13:22:54.732Z,69.68
2018-03-04T13:25:22.318Z,69.09
2018-03-04T13:27:49.930Z,69.78
2018-03-04T13:30:17.485Z,69.03
2018-03-04T13:32:45.056Z,69.46
2018-03-04T13:35:12.671Z,69.98
2018-03-04T13:37:40.214Z,70.33
2018-03-04T13:40:07.774Z,70.51
2018-03-04T13:42:35.640Z,70.29
2018-03-04T13:45:03.193Z,71.77
2018-03-04T13:47:30.774Z,71.99
2018-03-04T13:49:58.697Z,70.95
2018-03-04T13:52:26.268Z,71.61
2018-03-04T13:54:53.808Z,70.50
2018-03-04T13:57:21.410Z,70.44
2018-03-04T13:59:48.983Z,70.64
2018-03-04T14:02:16.571Z,69.87
2018-03-04T14:04:44.274Z,70.43
2018-03-04T14:07:11.838Z,70.31
2018-03-04T14:09:39.382Z,70.63
2018-03-04T14:12:07.075Z,71.22
2018-03-04T14:14:34.627Z,71.30
2018-03-04T14:17:02.186Z,71.67
2018-03-04T14:19:29.932Z,71.18
2018-03-04T14:21:57.491Z,71.17
2018-03-04T14:24:25.117Z,72.26
2018-03-04T14:26:52.878Z,71.98
2018-03-04T14:29:20.432Z,71.31
2018-03-04T14:31:48.006Z,72.60
2018-03-04T14:34:15.590Z,71.66
2018-03-04T14:36:43.152Z,70.94
2018-03-04T14:39:10.721Z,69.85
2018-03-04T14:41:38.598Z,71.00
2018-03-04T14:44:07.335Z,71.62
2018-03-04T14:46:34.883Z,73.98
2018-03-04T14:49:02.560Z,72.50
2018-03-04T14:51:30.126Z,72.24
2018-03-04T14:53:57.701Z,72.60
2018-03-04T14:56:25.417Z,71.86
2018-03-04T14:58:52.965Z,71.87
2018-03-04T15:01:20.529Z,72.31
2018-03-04T15:03:48.260Z,72.26
2018-03-04T15:06:15.814Z,73.13
2018-03-04T15:08:43.368Z,70.93
2018-03-04T15:11:11.014Z,71.98
2018-03-04T15:13:38.570Z,72.68
2018-03-04T15:16:06.168Z,73.57
2018-03-04T15:18:33.764Z,73.27
2018-03-04T15:21:01.314Z,72.42
2018-03-04T15:23:28.906Z,73.20
2018-03-04T15:25:56.537Z,73.88
2018-03-04T15:28:24.110Z,74.69
2018-03-04T15:30:51.671Z,74.91
2018-03-04T15:33:20.017Z,74.97
2018-03-04T15:35:47.573Z,75.19
2018-03-04T15:38:15.160Z,75.87
2018-03-04T15:40:42.901Z,76.06
2018-03-04T15:43:10.462Z,77.11
2018-03-04T15:45:38.013Z,77.37
2018-03-04T15:48:05.591Z,77.65
2018-03-04T15:50:33.148Z,77.82
2018-03-04T15:53:00.746Z,78.43
2018-03-04T15:55:28.337Z,78.17
2018-03-04T15:57:55.886Z,78.08
2018-03-04T16:00:23.470Z,78.82
2018-03-04T16:02:51.159Z,79.60
2018-03-04T16:05:18.726Z,79.99
2018-03-04T16:07:46.292Z,80.13
2018-03-04T16:10:13.869Z,80.54
2018-03-04T16:12:41.440Z,81.36
2018-03-04T16:15:09.047Z,80.93
2018-03-04T16:17:36.654Z,81.30
2018-03-04T16:20:04.267Z,82.03
2018-03-04T16:22:31.908Z,82.15
2018-03-04T16:24:59.493Z,81.93
2018-03-04T16:27:27.111Z,82.46
2018-03-04T16:29:54.867Z,83.00
2018-03-04T16:32:22.439Z,82.48
2018-03-04T16:34:50.015Z,83.00
2018-03-04T16:37:17.722Z,82.99
2018-03-04T16:39:45.366Z,82.70
2018-03-04T16:42:12.938Z,83.08
2018-03-04T16:44:40.574Z,83.41
2018-03-04T16:47:08.143Z,83.91
2018-03-04T16:49:35.689Z,83.53
2018-03-04T16:52:03.866Z,83.36
2018-03-04T16:54:31.443Z,83.45
2018-03-04T16:56:59.022Z,83.59
2018-03-04T16:59:26.623Z,83.96
2018-03-04T17:01:54.231Z,83.79
2018-03-04T17:04:21.821Z,83.81
2018-03-04T17:06:49.527Z,84.18
2018-03-04T17:09:17.093Z,83.87
2018-03-04T17:11:44.664Z,83.89
2018-03-04T17:14:12.437Z,83.67
2018-03-04T17:16:40.001Z,83.61
2018-03-04T17:19:07.615Z,83.52
2018-03-04T17:21:35.274Z,83.44
2018-03-04T17:24:02.872Z,83.20
2018-03-04T17:26:30.457Z,83.29
2018-03-04T17:28:58.415Z,82.23
2018-03-04T17:31:26.013Z,82.64
2018-03-04T17:33:53.591Z,82.96
2018-03-04T17:36:21.180Z,82.87
2018-03-04T17:38:48.787Z,82.51
2018-03-04T17:41:16.357Z,83.01
2018-03-04T17:43:43.959Z,82.79
2018-03-04T17:46:11.622Z,83.34
2018-03-04T17:48:39.262Z,83.07
2018-03-04T17:51:06.889Z,82.62
2018-03-04T17:53:34.459Z,83.43
2018-03-04T17:56:02.067Z,83.11
2018-03-04T17:58:29.681Z,83.06
2018-03-04T18:00:57.258Z,83.45
2018-03-04T18:03:24.841Z,84.03
2018-03-04T18:05:52.772Z,83.57
2018-03-04T18:08:20.321Z,83.40
2018-03-04T18:10:47.899Z,83.42
2018-03-04T18:13:15.533Z,84.04
2018-03-04T18:15:43.080Z,84.25
2018-03-04T18:18:10.665Z,84.50
2018-03-04T18:20:38.408Z,84.17
2018-03-04T18:23:05.978Z,84.57
2018-03-04T18:25:33.554Z,84.86
2018-03-04T18:28:01.340Z,84.40
2018-03-04T18:30:28.877Z,84.59
2018-03-04T18:32:56.504Z,84.71
2018-03-04T18:35:24.135Z,84.52
2018-03-04T18:37:51.745Z,84.48
2018-03-04T18:40:19.382Z,84.67
2018-03-04T18:42:47.093Z,84.81
2018-03-04T18:45:14.694Z,84.97
2018-03-04T18:47:42.254Z,85.43
2018-03-04T18:50:10.020Z,85.27
2018-03-04T18:52:37.628Z,85.50
2018-03-04T18:55:05.262Z,85.66
2018-03-04T18:57:33.060Z,85.53
2018-03-04T19:00:00.641Z,85.59
2018-03-04T19:02:28.278Z,85.76
2018-03-04T19:04:55.910Z,85.76
2018-03-04T19:07:23.488Z,85.77
2018-03-04T19:09:51.077Z,85.95
2018-03-04T19:12:18.820Z,85.92
2018-03-04T19:14:46.421Z,85.96
2018-03-04T19:17:13.987Z,86.17
2018-03-04T19:19:41.704Z,86.35
2018-03-04T19:22:09.561Z,86.39
2018-03-04T19:24:37.166Z,86.93
2018-03-04T19:27:04.896Z,87.18
2018-03-04T19:29:32.512Z,87.54
2018-03-04T19:32:00.133Z,87.77
2018-03-04T19:34:27.772Z,87.66
2018-03-04T19:36:55.417Z,87.76
2018-03-04T19:39:23.047Z,88.14
2018-03-04T19:41:50.677Z,88.08
2018-03-04T19:44:18.256Z,88.36
2018-03-04T19:46:45.808Z,88.60
2018-03-04T19:49:13.429Z,88.57
2018-03-04T19:51:41.012Z,88.88
2018-03-04T19:54:08.614Z,88.95
2018-03-04T19:56:36.460Z,89.01
2018-03-04T19:59:03.972Z,89.32
2018-03-04T20:01:31.621Z,89.54
2018-03-04T20:03:59.284Z,89.61
2018-03-04T20:06:26.858Z,89.78
2018-03-04T20:08:54.455Z,89.89
2018-03-04T20:11:22.046Z,89.92
2018-03-04T20:13:49.653Z,90.10
2018-03-04T20:16:17.446Z,90.16
2018-03-04T20:18:45.032Z,90.17
2018-03-04T20:21:12.605Z,90.22
2018-03-04T20:23:40.216Z,90.31
2018-03-04T20:26:07.789Z,90.47
2018-03-04T20:28:35.347Z,90.89
2018-03-04T20:31:03.048Z,90.92
2018-03-04T20:33:30.603Z,90.93
2018-03-04T20:35:58.161Z,90.89
2018-03-04T20:38:25.928Z,90.92
2018-03-04T20:40:53.490Z,91.07
2018-03-04T20:43:21.116Z,91.13
2018-03-04T20:45:48.709Z,91.13
2018-03-04T20:48:16.262Z,91.36
2018-03-04T20:50:43.838Z,91.70
2018-03-04T20:53:11.606Z,91.77
2018-03-04T20:55:39.166Z,91.81
2018-03-04T20:58:06.732Z,91.95
2018-03-04T21:00:34.342Z,92.16
2018-03-04T21:03:01.900Z,92.33
2018-03-04T21:05:29.477Z,92.51
2018-03-04T21:07:57.217Z,92.59
2018-03-04T21:10:24.798Z,92.66
2018-03-04T21:12:52.341Z,92.76
2018-03-04T21:15:19.947Z,92.79
2018-03-04T21:17:47.507Z,92.80
2018-03-04T21:20:15.062Z,92.81
2018-03-04T21:22:42.664Z,93.08
2018-03-04T21:25:10.232Z,93.14
2018-03-04T21:27:37.829Z,93.08
2018-03-04T21:30:05.548Z,93.07
2018-03-04T21:32:33.120Z,93.05
2018-03-04T21:35:00.675Z,93.09
2018-03-04T21:37:28.258Z,93.29
2018-03-04T21:39:55.820Z,93.19
2018-03-04T21:42:23.392Z,92.88
2018-03-04T21:44:51.087Z,92.65
2018-03-04T21:47:18.665Z,92.48
2018-03-04T21:49:46.235Z,92.32
2018-03-04T21:52:13.877Z,91.99
2018-03-04T21:54:41.435Z,91.78
2018-03-04T21:57:09.006Z,91.76
2018-03-04T21:59:36.771Z,91.84
2018-03-04T22:02:04.348Z,91.95
2018-03-04T22:04:31.918Z,91.91
2018-03-04T22:06:59.514Z,91.86
2018-03-04T22:09:27.079Z,91.88
2018-03-04T22:11:54.649Z,91.92
2018-03-04T22:14:22.382Z,91.95
2018-03-04T22:16:49.932Z,91.97
2018-03-04T22:19:17.496Z,91.94
2018-03-04T22:21:45.109Z,91.92
2018-03-04T22:24:12.653Z,91.87
2018-03-04T22:26:40.206Z,91.64
2018-03-04T22:29:08.095Z,91.58
2018-03-04T22:31:35.663Z,91.61
2018-03-04T22:34:03.230Z,91.74
2018-03-04T22:36:30.805Z,91.83
2018-03-04T22:38:58.346Z,91.90
2018-03-04T22:41:25.897Z,92.00
2018-03-04T22:43:53.481Z,92.10
2018-03-04T22:46:21.031Z,91.99
2018-03-04T22:48:48.596Z,91.84
2018-03-04T22:51:16.204Z,91.76
2018-03-04T22:53:43.768Z,91.72
2018-03-04T22:56:11.332Z,91.75
2018-03-04T22:58:39.030Z,91.76
2018-03-04T23:01:06.590Z,91.79
2018-03-04T23:03:35.092Z,91.58
2018-03-04T23:06:02.689Z,91.34
2018-03-04T23:08:30.239Z,91.05
2018-03-04T23:10:57.791Z,90.51
2018-03-04T23:13:25.682Z,90.46
2018-03-04T23:15:53.218Z,90.23
2018-03-04T23:18:20.798Z,90.27
2018-03-04T23:20:48.490Z,90.37
2018-03-04T23:23:16.058Z,90.24
2018-03-04T23:25:43.616Z,90.19
2018-03-04T23:28:11.364Z,90.23
2018-03-04T23:30:38.915Z,90.35
2018-03-04T23:33:06.460Z,90.40
2018-03-04T23:35:34.220Z,90.36
2018-03-04T23:38:01.784Z,90.28
2018-03-04T23:40:29.362Z,90.23
2018-03-04T23:42:56.953Z,90.09
2018-03-04T23:45:24.527Z,90.06
2018-03-04T23:47:52.069Z,89.80
2018-03-04T23:50:19.801Z,89.83
2018-03-04T23:52:47.345Z,89.93
2018-03-04T23:55:14.904Z,89.97
2018-03-04T23:57:42.494Z,89.89
